KFLL/FLL METAR and TAF weather

Enter ICAO airport designator
Station Type Date Time Source
KFLL METAR 2019/11/18 03:53 UTC NOAA

KFLL 180353Z 28008KT 10SM OVC014 15/12 A2988 RMK AO2 SLP116 T01500122 $


Station Type Date Time Source
KFLL Decoded METAR 2019/11/18 03:53 UTC NOAA

FORT LAUDERDALE/HOLLYWOOD, FL, United States (KFLL) 26-04N 080-09W 30M
Nov 17, 2019 - 10:53 PM EST / 2019.11.18 0353 UTC
Wind: from the W (280 degrees) at 9 MPH (8 KT):0
Visibility: 10 mile(s):0
Sky conditions: overcast
Temperature: 59.0 F (15.0 C)
Dew Point: 54.0 F (12.2 C)
Relative Humidity: 83%
Pressure (altimeter): 29.88 in. Hg (1011 hPa)
ob: KFLL 180353Z 28008KT 10SM OVC014 15/12 A2988 RMK AO2 SLP116 T01500122
cycle: 4

Station Type Date Time Source
KFLL TAF 2019/11/18 02:08 UTC NOAA

TAF
AMD KFLL 180202Z 1802/1906 31005KT P6SM OVC015
FM180600 VRB03KT P6SM BKN040
FM181500 27010KT P6SM SCT025 SCT050
FM190200 VRB04KT P6SM SCT030

Example: see airport list